createdAt,value
2024-02-16T00:01:23.369Z,23.58
2024-02-16T00:03:29.489Z,23.56
2024-02-16T00:05:35.675Z,23.57
2024-02-16T00:07:41.621Z,23.58
2024-02-16T00:09:47.364Z,23.57
2024-02-16T00:11:53.130Z,23.57
2024-02-16T00:13:58.970Z,23.56
2024-02-16T00:16:04.666Z,23.56
2024-02-16T00:18:10.507Z,23.56
2024-02-16T00:20:16.514Z,23.57
2024-02-16T00:22:22.185Z,23.57
2024-02-16T00:24:28.033Z,23.56
2024-02-16T00:26:34.014Z,23.54
2024-02-16T00:28:39.808Z,23.55
2024-02-16T00:30:45.555Z,23.56
2024-02-16T00:32:51.401Z,23.56
2024-02-16T00:34:57.622Z,23.57
2024-02-16T00:37:03.627Z,23.57
2024-02-16T00:39:09.397Z,23.57
2024-02-16T00:41:15.108Z,23.56
2024-02-16T00:43:20.882Z,23.57
2024-02-16T00:45:26.765Z,23.56
2024-02-16T00:47:32.587Z,23.55
2024-02-16T00:49:38.576Z,23.57
2024-02-16T00:51:44.683Z,23.58
2024-02-16T00:53:50.466Z,23.57
2024-02-16T00:55:56.268Z,23.56
2024-02-16T00:58:02.144Z,23.56
2024-02-16T01:00:08.242Z,23.56
2024-02-16T01:02:14.644Z,23.57
2024-02-16T01:04:20.402Z,23.57
2024-02-16T01:06:26.340Z,23.56
2024-02-16T01:08:32.226Z,23.55
2024-02-16T01:10:38.046Z,23.54
2024-02-16T01:12:43.899Z,23.54
2024-02-16T01:14:49.568Z,23.53
2024-02-16T01:16:55.592Z,23.53
2024-02-16T01:19:01.270Z,23.53
2024-02-16T01:21:07.095Z,23.52
2024-02-16T01:23:12.744Z,23.52
2024-02-16T01:25:18.579Z,23.52
2024-02-16T01:27:24.344Z,23.52
2024-02-16T01:29:30.497Z,23.52
2024-02-16T01:31:36.448Z,23.52
2024-02-16T01:33:42.351Z,23.51
2024-02-16T01:35:48.454Z,23.51
2024-02-16T01:37:54.250Z,23.52
2024-02-16T01:39:59.846Z,23.52
2024-02-16T01:42:05.488Z,23.52
2024-02-16T01:44:11.324Z,23.51
2024-02-16T01:46:16.975Z,23.51
2024-02-16T01:48:22.623Z,23.51
2024-02-16T01:50:28.817Z,23.5
2024-02-16T01:52:36.678Z,23.51
2024-02-16T01:54:42.417Z,23.51
2024-02-16T01:56:48.227Z,23.52
2024-02-16T01:58:53.812Z,23.52
2024-02-16T02:00:59.367Z,23.51
2024-02-16T02:03:05.214Z,23.5
2024-02-16T02:05:11.050Z,23.49
2024-02-16T02:07:17.624Z,23.49
2024-02-16T02:09:23.504Z,23.49
2024-02-16T02:11:29.264Z,23.49
2024-02-16T02:13:35.178Z,23.47
2024-02-16T02:15:40.954Z,23.47
2024-02-16T02:17:46.744Z,23.47
2024-02-16T02:19:52.666Z,23.47
2024-02-16T02:21:58.361Z,23.46
2024-02-16T02:24:04.060Z,23.46
2024-02-16T02:26:13.242Z,23.45
2024-02-16T02:28:18.886Z,23.47
2024-02-16T02:30:24.498Z,23.46
2024-02-16T02:32:30.093Z,23.46
2024-02-16T02:34:35.869Z,23.45
2024-02-16T02:36:42.093Z,23.45
2024-02-16T02:38:47.844Z,23.45
2024-02-16T02:40:53.688Z,23.45
2024-02-16T02:42:59.428Z,23.45
2024-02-16T02:45:05.297Z,23.46
2024-02-16T02:47:10.924Z,23.45
2024-02-16T02:49:16.651Z,23.43
2024-02-16T02:51:22.486Z,23.44
2024-02-16T02:53:28.379Z,23.44
2024-02-16T02:55:33.918Z,23.45
2024-02-16T02:57:41.201Z,23.45
2024-02-16T02:59:46.827Z,23.47
2024-02-16T03:01:52.905Z,23.47
2024-02-16T03:03:58.486Z,23.49
2024-02-16T03:06:05.109Z,23.5
2024-02-16T03:08:11.065Z,23.49
2024-02-16T03:10:16.816Z,23.5
2024-02-16T03:12:22.419Z,23.49
2024-02-16T03:14:28.109Z,23.49
2024-02-16T03:16:33.750Z,23.49
2024-02-16T03:18:39.560Z,23.48
2024-02-16T03:20:45.547Z,23.48
2024-02-16T03:22:51.414Z,23.49
2024-02-16T03:24:57.162Z,23.48
2024-02-16T03:27:02.906Z,23.47
2024-02-16T03:29:08.755Z,23.47
2024-02-16T03:32:05.277Z,23.46
2024-02-16T03:34:11.049Z,23.46
2024-02-16T03:36:17.201Z,23.47
2024-02-16T03:38:22.938Z,23.47
2024-02-16T03:40:28.484Z,23.47
2024-02-16T03:42:34.050Z,23.46
2024-02-16T03:44:39.771Z,23.46
2024-02-16T03:46:45.525Z,23.44
2024-02-16T03:48:54.039Z,23.43
2024-02-16T03:51:01.648Z,23.41
2024-02-16T03:53:07.369Z,23.41
2024-02-16T03:55:12.713Z,23.39
2024-02-16T03:57:18.074Z,23.39
2024-02-16T03:59:23.581Z,23.37
2024-02-16T04:01:29.488Z,23.37
2024-02-16T04:03:35.474Z,23.35
2024-02-16T04:05:41.238Z,23.35
2024-02-16T04:07:46.804Z,23.35
2024-02-16T04:09:52.541Z,23.34
2024-02-16T04:11:58.102Z,23.33
2024-02-16T04:14:03.719Z,23.32
2024-02-16T04:16:09.068Z,23.3
2024-02-16T04:18:14.741Z,23.29
2024-02-16T04:20:20.548Z,23.29
2024-02-16T04:22:26.189Z,23.27
2024-02-16T04:24:31.761Z,23.26
2024-02-16T04:26:37.379Z,23.25
2024-02-16T04:28:44.186Z,23.24
2024-02-16T04:30:49.796Z,23.23
2024-02-16T04:32:55.518Z,23.23
2024-02-16T04:35:01.543Z,23.22
2024-02-16T04:37:07.339Z,23.21
2024-02-16T04:39:12.814Z,23.21
2024-02-16T04:41:18.218Z,23.21
2024-02-16T04:43:23.671Z,23.2
2024-02-16T04:45:29.267Z,23.2
2024-02-16T04:47:34.857Z,23.19
2024-02-16T04:49:40.521Z,23.19
2024-02-16T04:51:46.258Z,23.2
2024-02-16T04:53:51.907Z,23.2
2024-02-16T04:55:57.529Z,23.19
2024-02-16T04:58:02.865Z,23.19
2024-02-16T05:00:08.643Z,23.19
2024-02-16T05:02:14.476Z,23.18
2024-02-16T05:04:20.051Z,23.18
2024-02-16T05:06:26.266Z,23.18
2024-02-16T05:08:32.066Z,23.17
2024-02-16T05:10:37.570Z,23.18
2024-02-16T05:12:43.026Z,23.17
2024-02-16T05:14:48.590Z,23.17
2024-02-16T05:16:54.596Z,23.17
2024-02-16T05:19:03.891Z,23.17
2024-02-16T05:21:09.699Z,23.17
2024-02-16T05:23:15.457Z,23.17
2024-02-16T05:25:20.978Z,23.16
2024-02-16T05:27:26.812Z,23.15
2024-02-16T05:29:32.375Z,23.15
2024-02-16T05:31:37.718Z,23.14
2024-02-16T05:33:43.193Z,23.14
2024-02-16T05:35:49.223Z,23.13
2024-02-16T05:37:54.677Z,23.11
2024-02-16T05:40:00.287Z,23.12
2024-02-16T05:42:05.632Z,23.11
2024-02-16T05:44:11.167Z,23.11
2024-02-16T05:46:16.499Z,23.1
2024-02-16T05:48:21.978Z,23.1
2024-02-16T05:50:27.860Z,23.1
2024-02-16T05:52:33.673Z,23.1
2024-02-16T05:54:39.325Z,23.09
2024-02-16T05:56:44.969Z,23.08
2024-02-16T05:58:50.373Z,23.08
2024-02-16T06:00:55.876Z,23.08
2024-02-16T06:03:01.918Z,23.08
2024-02-16T06:05:07.425Z,23.07
2024-02-16T06:07:13.231Z,23.07
2024-02-16T06:09:19.241Z,23.05
2024-02-16T06:11:24.785Z,23.06
2024-02-16T06:13:30.384Z,23.05
2024-02-16T06:15:35.796Z,23.05
2024-02-16T06:17:41.648Z,23.04
2024-02-16T06:19:47.615Z,23.05
2024-02-16T06:21:54.525Z,23.05
2024-02-16T06:23:59.956Z,23.05
2024-02-16T06:26:05.593Z,23.05
2024-02-16T06:28:11.020Z,23.05
2024-02-16T06:30:16.378Z,23.05
2024-02-16T06:32:21.908Z,23.05
2024-02-16T06:34:27.310Z,23.05
2024-02-16T06:36:33.094Z,23.05
2024-02-16T06:38:38.732Z,23.05
2024-02-16T06:40:44.180Z,23.05
2024-02-16T06:42:49.717Z,23.02
2024-02-16T06:44:55.181Z,22.85
2024-02-16T06:47:00.811Z,22.81
2024-02-16T06:49:06.279Z,22.81
2024-02-16T06:51:14.412Z,22.82
2024-02-16T06:53:20.100Z,22.83
2024-02-16T06:55:25.440Z,22.85
2024-02-16T06:57:30.884Z,22.87
2024-02-16T06:59:37.736Z,22.9
2024-02-16T07:01:43.009Z,22.91
2024-02-16T07:03:48.453Z,22.91
2024-02-16T07:05:54.263Z,22.92
2024-02-16T07:07:59.928Z,22.93
2024-02-16T07:10:05.373Z,22.94
2024-02-16T07:12:10.931Z,22.94
2024-02-16T07:14:16.749Z,22.93
2024-02-16T07:16:22.309Z,22.92
2024-02-16T07:18:28.017Z,22.91
2024-02-16T07:20:33.911Z,22.91
2024-02-16T07:22:39.445Z,22.9
2024-02-16T07:24:44.894Z,22.9
2024-02-16T07:26:51.488Z,22.9
2024-02-16T07:28:57.091Z,22.89
2024-02-16T07:31:02.893Z,22.9
2024-02-16T07:33:08.989Z,22.9
2024-02-16T07:35:14.636Z,22.9
2024-02-16T07:37:22.113Z,22.92
2024-02-16T07:39:27.538Z,22.93
2024-02-16T07:41:33.109Z,22.95
2024-02-16T07:43:38.447Z,22.95
2024-02-16T07:45:43.768Z,22.95
2024-02-16T07:47:49.372Z,22.94
2024-02-16T07:49:55.110Z,22.91
2024-02-16T07:52:00.938Z,22.9
2024-02-16T07:54:06.221Z,22.91
2024-02-16T07:56:11.919Z,22.92
2024-02-16T07:58:19.971Z,22.92
2024-02-16T08:00:25.480Z,22.92
2024-02-16T08:02:30.900Z,22.92
2024-02-16T08:04:36.136Z,22.92
2024-02-16T08:06:41.660Z,22.92
2024-02-16T08:08:47.438Z,22.91
2024-02-16T08:10:53.065Z,22.91
2024-02-16T08:12:58.619Z,22.91
2024-02-16T08:15:04.085Z,22.9
2024-02-16T08:17:12.443Z,22.91
2024-02-16T08:19:25.148Z,22.93
2024-02-16T08:21:30.838Z,22.94
2024-02-16T08:23:36.484Z,22.95
2024-02-16T08:25:41.901Z,22.96
2024-02-16T08:27:47.249Z,22.96
2024-02-16T08:29:52.576Z,22.97
2024-02-16T08:31:58.232Z,22.97
2024-02-16T08:34:06.288Z,22.99
2024-02-16T08:36:13.432Z,23
2024-02-16T08:38:19.063Z,23.01
2024-02-16T08:40:24.407Z,23.02
2024-02-16T08:42:29.810Z,23.01
2024-02-16T08:44:35.784Z,23.02
2024-02-16T08:46:41.122Z,23.03
2024-02-16T08:48:46.611Z,23.04
2024-02-16T08:50:52.756Z,23.04
2024-02-16T08:52:58.166Z,23.05
2024-02-16T08:55:03.752Z,23.07
2024-02-16T08:57:09.374Z,23.08
2024-02-16T08:59:14.820Z,23.09
2024-02-16T09:01:20.347Z,23.1
2024-02-16T09:03:26.002Z,23.1
2024-02-16T09:05:31.767Z,23.12
2024-02-16T09:07:37.396Z,23.13
2024-02-16T09:09:43.076Z,23.15
2024-02-16T09:11:48.561Z,23.17
2024-02-16T09:13:54.001Z,23.19
2024-02-16T09:15:59.359Z,23.2
2024-02-16T09:18:04.995Z,23.21
2024-02-16T09:20:10.938Z,23.16
2024-02-16T09:22:16.677Z,23.09
2024-02-16T09:24:22.266Z,22.98
2024-02-16T09:26:27.788Z,22.93
2024-02-16T09:28:33.321Z,22.94
2024-02-16T09:30:38.845Z,22.96
2024-02-16T09:32:44.561Z,22.98
2024-02-16T09:34:50.147Z,23.01
2024-02-16T09:36:56.327Z,23.04
2024-02-16T09:39:01.972Z,23.06
2024-02-16T09:41:07.505Z,23.06
2024-02-16T09:43:13.038Z,23.09
2024-02-16T09:45:18.625Z,23.11
2024-02-16T09:47:24.328Z,22.96
2024-02-16T09:49:35.348Z,22.54
2024-02-16T09:51:46.305Z,22.22
2024-02-16T09:53:51.933Z,22.07
2024-02-16T09:56:02.539Z,21.88
2024-02-16T09:58:08.016Z,21.71
2024-02-16T10:00:13.375Z,21.44
2024-02-16T10:02:18.906Z,21.22
2024-02-16T10:04:24.452Z,21
2024-02-16T10:06:29.921Z,20.97
2024-02-16T10:08:35.628Z,20.9
2024-02-16T10:10:41.081Z,20.79
2024-02-16T10:12:46.841Z,20.73
2024-02-16T10:14:52.707Z,20.68
2024-02-16T10:16:58.421Z,20.61
2024-02-16T10:19:03.855Z,20.53
2024-02-16T10:21:09.748Z,20.47
2024-02-16T10:23:15.149Z,20.5
2024-02-16T10:25:20.715Z,20.51
2024-02-16T10:27:26.263Z,20.48
2024-02-16T10:29:31.684Z,20.45
2024-02-16T10:31:37.011Z,20.44
2024-02-16T10:33:42.561Z,20.49
2024-02-16T10:35:48.732Z,20.53
2024-02-16T10:37:54.509Z,20.55
2024-02-16T10:39:59.827Z,20.56
2024-02-16T10:42:05.239Z,20.62
2024-02-16T10:44:10.757Z,20.69
2024-02-16T10:46:16.287Z,20.71
2024-02-16T10:48:21.675Z,20.76
2024-02-16T10:50:27.795Z,20.79
2024-02-16T10:52:33.369Z,20.81
2024-02-16T10:54:38.616Z,20.77
2024-02-16T10:56:44.659Z,20.69
2024-02-16T10:58:50.016Z,20.59
2024-02-16T11:00:55.768Z,20.55
2024-02-16T11:03:02.165Z,20.5
2024-02-16T11:05:08.178Z,20.53
2024-02-16T11:07:14.221Z,20.63
2024-02-16T11:09:20.806Z,20.67
2024-02-16T11:11:26.769Z,20.71
2024-02-16T11:13:32.184Z,20.7
2024-02-16T11:15:37.683Z,20.73
2024-02-16T11:17:43.704Z,20.76
2024-02-16T11:19:49.406Z,20.88
2024-02-16T11:21:56.098Z,21.02
2024-02-16T11:24:01.653Z,21.06
2024-02-16T11:26:07.285Z,21
2024-02-16T11:28:12.725Z,20.94
2024-02-16T11:30:18.301Z,20.94
2024-02-16T11:32:23.709Z,21.02
2024-02-16T11:34:29.045Z,21.04
2024-02-16T11:36:34.710Z,21.02
2024-02-16T11:38:40.352Z,21.02
2024-02-16T11:40:45.994Z,20.99
2024-02-16T11:42:52.730Z,20.99
2024-02-16T11:45:00.379Z,21.01
2024-02-16T11:47:05.792Z,21.1
2024-02-16T11:49:11.184Z,21.21
2024-02-16T11:51:17.143Z,21.17
2024-02-16T11:53:23.263Z,21.17
2024-02-16T11:55:28.799Z,21.15
2024-02-16T11:57:34.495Z,21.16
2024-02-16T11:59:40.497Z,21.12
2024-02-16T12:01:46.045Z,21.07
2024-02-16T12:03:51.479Z,21.08
2024-02-16T12:05:57.080Z,21.15
2024-02-16T12:08:03.364Z,21.36
2024-02-16T12:10:08.950Z,21.61
2024-02-16T12:12:14.722Z,21.83
2024-02-16T12:14:20.227Z,22.06
2024-02-16T12:16:25.666Z,22.25
2024-02-16T12:18:31.214Z,22.42
2024-02-16T12:20:37.476Z,22.57
2024-02-16T12:22:43.019Z,22.71
2024-02-16T12:24:48.573Z,22.8
2024-02-16T12:26:54.016Z,22.9
2024-02-16T12:28:59.451Z,22.95
2024-02-16T12:31:04.994Z,22.95
2024-02-16T12:33:10.571Z,22.98
2024-02-16T12:35:16.241Z,23.02
2024-02-16T12:37:22.502Z,23.06
2024-02-16T12:39:28.017Z,23.12
2024-02-16T12:41:33.553Z,23.2
2024-02-16T12:43:39.096Z,23.27
2024-02-16T12:45:44.654Z,23.34
2024-02-16T12:47:50.461Z,23.38
2024-02-16T12:49:56.172Z,23.43
2024-02-16T12:52:02.609Z,23.47
2024-02-16T12:54:08.049Z,23.5
2024-02-16T12:56:13.837Z,23.53
2024-02-16T12:58:19.471Z,23.53
2024-02-16T13:00:25.050Z,23.56
2024-02-16T13:02:30.944Z,23.57
2024-02-16T13:04:36.596Z,23.59
2024-02-16T13:06:42.430Z,23.61
2024-02-16T13:08:48.274Z,23.62
2024-02-16T13:10:53.943Z,23.64
2024-02-16T13:12:59.487Z,23.65
2024-02-16T13:15:10.265Z,23.64
2024-02-16T13:17:34.762Z,23.65
2024-02-16T13:19:41.750Z,23.68
2024-02-16T13:21:59.943Z,23.68
2024-02-16T13:24:25.475Z,23.67
2024-02-16T13:26:32.043Z,23.69
2024-02-16T13:28:37.468Z,23.69
2024-02-16T13:30:43.010Z,23.71
2024-02-16T13:32:49.000Z,23.72
2024-02-16T13:34:54.654Z,23.73
2024-02-16T13:37:00.260Z,23.74
2024-02-16T13:39:05.788Z,23.75
2024-02-16T13:41:11.328Z,23.75
2024-02-16T13:43:20.447Z,23.76
2024-02-16T13:45:25.922Z,23.75
2024-02-16T13:47:31.533Z,23.72
2024-02-16T13:49:37.042Z,23.7
2024-02-16T13:51:42.885Z,23.68
2024-02-16T13:53:48.676Z,23.66
2024-02-16T13:55:54.223Z,23.65
2024-02-16T13:57:59.743Z,23.64
2024-02-16T14:00:05.140Z,23.62
2024-02-16T14:02:10.654Z,23.63
2024-02-16T14:04:16.033Z,23.62
2024-02-16T14:06:21.816Z,23.64
2024-02-16T14:08:27.458Z,23.63
2024-02-16T14:10:33.265Z,23.6
2024-02-16T14:12:38.907Z,23.56
2024-02-16T14:14:44.509Z,23.51
2024-02-16T14:16:50.139Z,23.47
2024-02-16T14:18:55.782Z,23.4
2024-02-16T14:21:01.852Z,23.38
2024-02-16T14:23:08.001Z,23.35
2024-02-16T14:25:13.767Z,23.31
2024-02-16T14:27:19.333Z,23.3
2024-02-16T14:29:25.760Z,23.28
2024-02-16T14:31:31.182Z,23.27
2024-02-16T14:33:36.734Z,23.26
2024-02-16T14:35:42.794Z,23.27
2024-02-16T14:37:48.329Z,23.26
2024-02-16T14:39:53.932Z,23.27
2024-02-16T14:41:59.332Z,23.27
2024-02-16T14:44:04.741Z,23.26
2024-02-16T14:46:10.291Z,23.26
2024-02-16T14:48:17.430Z,23.26
2024-02-16T14:50:23.844Z,23.25
2024-02-16T14:52:29.287Z,23.26
2024-02-16T14:54:34.945Z,23.26
2024-02-16T14:56:40.580Z,23.25
2024-02-16T14:58:46.024Z,23.24
2024-02-16T15:00:51.585Z,23.22
2024-02-16T15:02:57.579Z,23.21
2024-02-16T15:05:03.236Z,23.2
2024-02-16T15:07:08.600Z,23.2
2024-02-16T15:09:14.085Z,23.19
2024-02-16T15:11:19.937Z,23.18
2024-02-16T15:13:25.341Z,23.19
2024-02-16T15:15:30.790Z,23.18
2024-02-16T15:17:36.984Z,23.18
2024-02-16T15:19:42.765Z,23.19
2024-02-16T15:21:48.753Z,23.17
2024-02-16T15:23:54.629Z,23.16
2024-02-16T15:26:00.450Z,23.16
2024-02-16T15:28:05.883Z,23.15
2024-02-16T15:30:11.457Z,23.16
2024-02-16T15:32:17.170Z,23.15
2024-02-16T15:34:22.741Z,23.15
2024-02-16T15:36:28.589Z,23.15
2024-02-16T15:38:34.196Z,23.15
2024-02-16T15:40:39.542Z,23.15
2024-02-16T15:42:45.083Z,23.15
2024-02-16T15:44:53.447Z,23.13
2024-02-16T15:47:00.772Z,23.17
2024-02-16T15:49:06.230Z,23.17
2024-02-16T15:51:12.180Z,23.22
2024-02-16T15:53:17.716Z,23.26
2024-02-16T15:55:23.158Z,23.31
2024-02-16T15:57:28.630Z,23.35
2024-02-16T15:59:34.036Z,23.39
2024-02-16T16:01:39.590Z,23.42
2024-02-16T16:03:45.189Z,23.44
2024-02-16T16:05:51.232Z,23.47
2024-02-16T16:07:56.762Z,23.49
2024-02-16T16:10:02.166Z,23.52
2024-02-16T16:12:07.626Z,23.54
2024-02-16T16:14:13.261Z,23.53
2024-02-16T16:16:18.695Z,23.53
2024-02-16T16:18:24.273Z,23.53
2024-02-16T16:20:30.536Z,23.5
2024-02-16T16:22:36.245Z,23.48
2024-02-16T16:24:41.734Z,23.48
2024-02-16T16:26:47.961Z,23.48
2024-02-16T16:28:53.487Z,23.47
2024-02-16T16:30:58.774Z,23.47
2024-02-16T16:33:04.365Z,23.46
2024-02-16T16:35:11.842Z,23.46
2024-02-16T16:37:18.019Z,23.47
2024-02-16T16:39:23.629Z,23.47
2024-02-16T16:41:29.218Z,23.49
2024-02-16T16:43:34.645Z,23.49
2024-02-16T16:45:40.106Z,23.48
2024-02-16T16:47:45.865Z,23.47
2024-02-16T16:49:51.481Z,23.45
2024-02-16T16:51:57.229Z,23.43
2024-02-16T16:54:02.616Z,23.39
2024-02-16T16:56:08.256Z,23.41
2024-02-16T16:58:13.532Z,23.41
2024-02-16T17:00:18.957Z,23.4
2024-02-16T17:02:24.531Z,23.39
2024-02-16T17:04:31.178Z,23.39
2024-02-16T17:06:36.807Z,23.37
2024-02-16T17:08:44.140Z,23.36
2024-02-16T17:10:52.679Z,23.34
2024-02-16T17:12:58.358Z,23.34
2024-02-16T17:15:03.754Z,23.32
2024-02-16T17:17:10.354Z,23.31
2024-02-16T17:19:15.787Z,23.26
2024-02-16T17:21:22.005Z,23.23
2024-02-16T17:23:27.451Z,23.23
2024-02-16T17:25:32.887Z,23.22
2024-02-16T17:27:40.085Z,23.22
2024-02-16T17:29:47.525Z,23.2
2024-02-16T17:31:52.999Z,23.23
2024-02-16T17:33:58.547Z,23.25
2024-02-16T17:36:10.071Z,23.28
2024-02-16T17:38:15.575Z,23.31
2024-02-16T17:40:21.012Z,23.32
2024-02-16T17:42:26.674Z,23.33
2024-02-16T17:44:32.407Z,23.33
2024-02-16T17:46:37.742Z,23.31
2024-02-16T17:48:43.364Z,23.31
2024-02-16T17:50:49.227Z,23.3
2024-02-16T17:52:54.572Z,23.3
2024-02-16T17:55:00.345Z,23.29
2024-02-16T17:57:11.949Z,23.28
2024-02-16T17:59:17.550Z,23.28
2024-02-16T18:01:23.104Z,23.28
2024-02-16T18:03:28.777Z,23.28
2024-02-16T18:05:34.268Z,23.3
2024-02-16T18:07:40.001Z,23.31
2024-02-16T18:09:45.881Z,23.31
2024-02-16T18:11:51.610Z,23.32
2024-02-16T18:13:57.168Z,23.34
2024-02-16T18:16:02.595Z,23.34
2024-02-16T18:18:08.246Z,23.35
2024-02-16T18:20:14.473Z,23.35
2024-02-16T18:22:20.162Z,23.35
2024-02-16T18:24:25.809Z,23.35
2024-02-16T18:26:31.453Z,23.33
2024-02-16T18:28:42.146Z,23.32
2024-02-16T18:30:51.148Z,23.31
2024-02-16T18:32:57.134Z,23.32
2024-02-16T18:35:03.215Z,23.33
2024-02-16T18:37:09.288Z,23.32
2024-02-16T18:39:14.907Z,23.33
2024-02-16T18:41:20.379Z,23.33
2024-02-16T18:43:26.954Z,23.35
2024-02-16T18:45:33.218Z,23.35
2024-02-16T18:47:39.047Z,23.34
2024-02-16T18:49:44.909Z,23.34
2024-02-16T18:51:51.161Z,23.34
2024-02-16T18:53:56.734Z,23.33
2024-02-16T18:56:02.348Z,23.33
2024-02-16T18:58:07.901Z,23.34
2024-02-16T19:00:13.259Z,23.34
2024-02-16T19:02:18.788Z,23.34
2024-02-16T19:04:24.119Z,23.34
2024-02-16T19:06:29.704Z,23.34
2024-02-16T19:08:35.611Z,23.33
2024-02-16T19:10:41.000Z,23.32
2024-02-16T19:12:46.743Z,23.31
2024-02-16T19:14:52.241Z,23.32
2024-02-16T19:16:57.785Z,23.32
2024-02-16T19:19:03.196Z,23.33
2024-02-16T19:21:09.223Z,23.3
2024-02-16T19:23:15.128Z,23.31
2024-02-16T19:25:20.576Z,23.31
2024-02-16T19:27:26.439Z,23.31
2024-02-16T19:29:32.281Z,23.32
2024-02-16T19:31:37.704Z,23.32
2024-02-16T19:33:43.023Z,23.33
2024-02-16T19:35:48.693Z,23.32
2024-02-16T19:37:54.133Z,23.34
2024-02-16T19:39:59.575Z,23.34
2024-02-16T19:42:05.561Z,23.35
2024-02-16T19:44:11.168Z,23.35
2024-02-16T19:46:16.512Z,23.35
2024-02-16T19:48:22.299Z,23.35
2024-02-16T19:50:28.556Z,23.34
2024-02-16T19:52:34.280Z,23.33
2024-02-16T19:54:39.850Z,23.32
2024-02-16T19:56:45.455Z,23.33
2024-02-16T19:58:51.006Z,23.34
2024-02-16T20:00:56.691Z,23.36
2024-02-16T20:03:02.621Z,23.39
2024-02-16T20:05:08.242Z,23.4
2024-02-16T20:07:13.810Z,23.38
2024-02-16T20:09:19.595Z,23.37
2024-02-16T20:11:25.101Z,23.36
2024-02-16T20:13:30.793Z,23.34
2024-02-16T20:15:36.299Z,23.33
2024-02-16T20:17:42.085Z,23.34
2024-02-16T20:19:47.919Z,23.36
2024-02-16T20:21:54.165Z,23.36
2024-02-16T20:23:59.825Z,23.36
2024-02-16T20:26:05.207Z,23.37
2024-02-16T20:28:10.643Z,23.35
2024-02-16T20:30:15.978Z,23.35
2024-02-16T20:32:21.540Z,23.35
2024-02-16T20:34:27.527Z,23.35
2024-02-16T20:36:33.188Z,23.33
2024-02-16T20:38:38.760Z,23.33
2024-02-16T20:40:44.154Z,23.32
2024-02-16T20:42:49.765Z,23.31
2024-02-16T20:44:55.290Z,23.31
2024-02-16T20:47:00.797Z,23.3
2024-02-16T20:49:06.562Z,23.3
2024-02-16T20:51:12.371Z,23.29
2024-02-16T20:53:17.766Z,23.29
2024-02-16T20:55:23.114Z,23.29
2024-02-16T20:57:28.582Z,23.3
2024-02-16T20:59:34.212Z,23.3
2024-02-16T21:01:39.859Z,23.3
2024-02-16T21:03:45.452Z,23.3
2024-02-16T21:05:51.351Z,23.3
2024-02-16T21:07:56.883Z,23.3
2024-02-16T21:10:02.343Z,23.31
2024-02-16T21:12:07.758Z,23.3
2024-02-16T21:14:13.197Z,23.31
2024-02-16T21:16:18.643Z,23.32
2024-02-16T21:18:24.017Z,23.31
2024-02-16T21:20:29.739Z,23.32
2024-02-16T21:22:37.184Z,23.33
2024-02-16T21:24:43.085Z,23.34
2024-02-16T21:26:48.824Z,23.32
2024-02-16T21:28:54.265Z,23.33
2024-02-16T21:30:59.710Z,23.33
2024-02-16T21:33:05.259Z,23.32
2024-02-16T21:35:11.332Z,23.33
2024-02-16T21:37:16.973Z,23.34
2024-02-16T21:39:22.518Z,23.34
2024-02-16T21:41:28.033Z,23.32
2024-02-16T21:43:33.481Z,23.33
2024-02-16T21:45:39.107Z,23.33
2024-02-16T21:47:45.007Z,23.34
2024-02-16T21:49:50.386Z,23.33
2024-02-16T21:51:56.075Z,23.32
2024-02-16T21:54:01.756Z,23.32
2024-02-16T21:56:07.164Z,23.32
2024-02-16T21:58:12.815Z,23.32
2024-02-16T22:00:18.267Z,23.31
2024-02-16T22:02:23.663Z,23.32
2024-02-16T22:04:28.998Z,23.32
2024-02-16T22:06:34.569Z,23.32
2024-02-16T22:08:40.506Z,23.32
2024-02-16T22:10:45.840Z,23.33
2024-02-16T22:12:52.391Z,23.34
2024-02-16T22:14:58.056Z,23.32
2024-02-16T22:17:03.591Z,23.32
2024-02-16T22:19:09.038Z,23.31
2024-02-16T22:21:15.547Z,23.3
2024-02-16T22:23:33.348Z,23.3
2024-02-16T22:25:38.772Z,23.3
2024-02-16T22:27:44.055Z,23.28
2024-02-16T22:29:49.446Z,23.28
2024-02-16T22:31:59.528Z,23.28
2024-02-16T22:34:22.193Z,23.29
2024-02-16T22:36:28.105Z,23.28
2024-02-16T22:38:34.305Z,23.29
2024-02-16T22:40:39.888Z,23.29
2024-02-16T22:42:45.441Z,23.29
2024-02-16T22:44:51.178Z,23.3
2024-02-16T22:46:56.524Z,23.29
2024-02-16T22:49:01.979Z,23.3
2024-02-16T22:51:08.014Z,23.29
2024-02-16T22:53:13.654Z,23.28
2024-02-16T22:55:19.393Z,23.28
2024-02-16T22:57:25.267Z,23.28
2024-02-16T22:59:30.916Z,23.28
2024-02-16T23:01:36.464Z,23.28
2024-02-16T23:03:41.845Z,23.28
2024-02-16T23:05:47.785Z,23.27
2024-02-16T23:07:53.490Z,23.26
2024-02-16T23:09:58.917Z,23.26
2024-02-16T23:12:04.364Z,23.27
2024-02-16T23:14:10.016Z,23.27
2024-02-16T23:16:15.541Z,23.25
2024-02-16T23:18:21.046Z,23.24
2024-02-16T23:20:27.461Z,23.23
2024-02-16T23:22:32.914Z,23.23
2024-02-16T23:24:38.467Z,23.22
2024-02-16T23:26:44.399Z,23.24
2024-02-16T23:28:49.828Z,23.23
2024-02-16T23:30:55.400Z,23.23
2024-02-16T23:33:00.993Z,23.23
2024-02-16T23:35:06.781Z,23.25
2024-02-16T23:37:12.116Z,23.25
2024-02-16T23:39:17.514Z,23.24
2024-02-16T23:41:22.877Z,23.24
2024-02-16T23:43:28.330Z,23.24
2024-02-16T23:45:33.843Z,23.23
2024-02-16T23:47:39.320Z,23.25
2024-02-16T23:49:45.066Z,23.25
2024-02-16T23:51:50.808Z,23.26
2024-02-16T23:53:56.349Z,23.28
2024-02-16T23:56:01.893Z,23.27
2024-02-16T23:58:07.446Z,23.26
